Hauptseite
METAR-TAF:

METAR-TAF

Flughäfen :

Flughafen Grenchen

Grenchen, Schweiz

Breite: 47-10-53N, Länge: 007-24-59E, Höhe: 430 m

Beobachtung

Neuester Wetterbericht von vor 43 Minuten, um 18:20 UTC
Wind 5 kt aus Ost/Nordost
Temperatur 19°C
Luftfeuchtigkeit 64%
Luftdruck 1018 hPa
Sichtweite 10 km oder mehr
keine Wolken unter 1500 m und keine Kumulonimbus oder Gewitterwolken

METAR: LSZG 051820Z 06005KT CAVOK 19/12 Q1018 NOSIG

Zeit: 21:03 (19:03 UTC)

Prognose

Neuester Wetterbericht von vor 4 Stunden und 38 Minuten, um 14:25 UTC
Gültige Prognose vom 05 um 15 UTC bis 05 um 24 UTC
Wind 13 kt aus Ost
Sichtweite 10 km oder mehr
keine Wolken unter 1500 m und keine Kumulonimbus oder Gewitterwolken
Übergehend zu
vom 05 um 17 UTC bis 05 um 20 UTC
Wind 3 kt aus unterschiedlichen Richtungen

TAF: LSZG 051425Z 0515/0524 08013KT CAVOK BECMG 0517/0520 VRB03KT

Wetterbeobachtungen und Prognosen von mehr als 4000 Flughäfen (METAR und TAF Bericht).

Die verfügbaren Stationen werden durch gelbe und rote Markierungen auf der Karte dargestellt.

Führen Sie die Maus auf sie, um den Namen der Station zu sehen.

Darauf klicken, um die Beobachtung von Wetterbeobachtungen und Prognosen zu sehen.

Um die Karte zu ändern : klicken Sie auf den grünen Tasten mit einem schwarzen Kreuz Zum Vergrößern, auf den grünen Button mit einem Gedankenstrich zu verkleinern, oder auf die grünen Pfeile für benachbarte Karten.


METAR-TAF: